createdAt,value
2019-02-20T00:00:50.343Z,2.36
2019-02-20T00:02:54.510Z,2.35
2019-02-20T00:03:54.748Z,2.24
2019-02-20T00:05:58.952Z,2.27
2019-02-20T00:06:59.145Z,2.34
2019-02-20T00:09:03.288Z,2.34
2019-02-20T00:10:03.528Z,2.41
2019-02-20T00:12:07.700Z,2.49
2019-02-20T00:13:07.935Z,2.49
2019-02-20T00:15:12.079Z,2.45
2019-02-20T00:16:12.318Z,2.46
2019-02-20T00:18:05.415Z,2.46
2019-02-20T00:19:05.650Z,2.45
2019-02-20T00:21:09.816Z,2.28
2019-02-20T00:22:10.054Z,2.27
2019-02-20T00:24:14.197Z,2.25
2019-02-20T00:25:14.436Z,2.24
2019-02-20T00:27:18.599Z,2.23
2019-02-20T00:28:18.836Z,2.31
2019-02-20T00:30:22.981Z,2.28
2019-02-20T00:31:23.214Z,2.35
2019-02-20T00:33:27.384Z,2.35
2019-02-20T00:34:27.620Z,2.35
2019-02-20T00:36:31.793Z,2.31
2019-02-20T00:37:32.071Z,2.28
2019-02-20T00:39:36.167Z,2.23
2019-02-20T00:40:36.406Z,2.27
2019-02-20T00:42:40.570Z,2.10
2019-02-20T00:43:40.807Z,2.16
2019-02-20T00:45:44.950Z,2.16
2019-02-20T00:46:45.188Z,2.10
2019-02-20T00:48:49.352Z,2.03
2019-02-20T00:49:49.592Z,1.95
2019-02-20T00:51:53.757Z,2.03
2019-02-20T00:52:53.993Z,2.18
2019-02-20T00:54:58.144Z,2.18
2019-02-20T00:55:58.378Z,2.28
2019-02-20T00:57:51.471Z,2.36
2019-02-20T00:58:51.709Z,2.43
2019-02-20T01:00:55.849Z,2.45
2019-02-20T01:01:56.083Z,2.53
2019-02-20T01:04:00.246Z,2.69
2019-02-20T01:05:00.479Z,2.59
2019-02-20T01:07:04.637Z,2.79
2019-02-20T01:08:04.873Z,2.74
2019-02-20T01:10:09.025Z,2.81
2019-02-20T01:11:09.251Z,2.81
2019-02-20T01:13:13.412Z,2.81
2019-02-20T01:14:13.647Z,2.81
2019-02-20T01:16:17.781Z,2.82
2019-02-20T01:17:18.013Z,2.92
2019-02-20T01:19:22.188Z,2.81
2019-02-20T01:20:22.405Z,2.82
2019-02-20T01:22:26.567Z,2.75
2019-02-20T01:23:26.804Z,2.74
2019-02-20T01:25:30.944Z,2.74
2019-02-20T01:26:31.176Z,2.59
2019-02-20T01:28:35.339Z,2.59
2019-02-20T01:29:35.570Z,2.54
2019-02-20T01:31:39.711Z,2.42
2019-02-20T01:32:39.944Z,2.38
2019-02-20T01:34:44.146Z,2.31
2019-02-20T01:35:44.339Z,2.36
2019-02-20T01:37:37.444Z,2.35
2019-02-20T01:38:37.675Z,2.25
2019-02-20T01:40:41.813Z,2.16
2019-02-20T01:41:42.049Z,2.07
2019-02-20T01:43:46.211Z,2.20
2019-02-20T01:44:46.443Z,2.28
2019-02-20T01:46:50.581Z,2.35
2019-02-20T01:47:50.812Z,2.38
2019-02-20T01:49:54.977Z,2.41
2019-02-20T01:50:55.208Z,2.43
2019-02-20T01:52:59.390Z,2.36
2019-02-20T01:53:59.611Z,2.35
2019-02-20T01:56:03.750Z,2.36
2019-02-20T01:57:03.986Z,2.43
2019-02-20T01:59:08.199Z,2.31
2019-02-20T02:00:08.379Z,2.34
2019-02-20T02:02:12.524Z,2.34
2019-02-20T02:03:12.755Z,2.41
2019-02-20T02:05:16.923Z,2.49
2019-02-20T02:06:17.161Z,2.35
2019-02-20T02:08:10.255Z,2.31
2019-02-20T02:09:10.487Z,2.46
2019-02-20T02:11:14.627Z,2.43
2019-02-20T02:12:14.860Z,2.43
2019-02-20T02:14:19.018Z,2.43
2019-02-20T02:15:20.758Z,2.48
2019-02-20T02:17:23.390Z,2.48
2019-02-20T02:18:23.622Z,2.39
2019-02-20T02:20:27.788Z,2.36
2019-02-20T02:21:28.014Z,2.35
2019-02-20T02:23:32.180Z,2.38
2019-02-20T02:24:32.415Z,2.34
2019-02-20T02:26:36.551Z,2.27
2019-02-20T02:27:36.784Z,2.31
2019-02-20T02:29:40.944Z,2.30
2019-02-20T02:30:41.192Z,2.25
2019-02-20T02:32:45.316Z,2.38
2019-02-20T02:33:45.549Z,2.28
2019-02-20T02:35:49.734Z,2.28
2019-02-20T02:36:49.945Z,2.27
2019-02-20T02:38:54.118Z,2.36
2019-02-20T02:39:54.351Z,2.38
2019-02-20T02:41:58.491Z,2.27
2019-02-20T02:42:58.721Z,2.31
2019-02-20T02:45:02.885Z,2.36
2019-02-20T02:46:03.122Z,2.41
2019-02-20T02:47:56.183Z,2.42
2019-02-20T02:48:56.416Z,2.43
2019-02-20T02:51:00.577Z,2.53
2019-02-20T02:52:00.814Z,2.42
2019-02-20T02:54:04.951Z,2.42
2019-02-20T02:55:05.188Z,2.43
2019-02-20T02:57:09.348Z,2.45
2019-02-20T02:58:09.582Z,2.34
2019-02-20T03:00:13.747Z,2.36
2019-02-20T03:01:13.990Z,2.36
2019-02-20T03:03:18.119Z,2.35
2019-02-20T03:04:18.360Z,2.28
2019-02-20T03:06:22.523Z,2.34
2019-02-20T03:07:22.968Z,2.39
2019-02-20T03:09:26.892Z,2.38
2019-02-20T03:10:27.125Z,2.35
2019-02-20T03:12:31.287Z,2.27
2019-02-20T03:13:31.520Z,2.36
2019-02-20T03:15:35.681Z,2.34
2019-02-20T03:16:35.918Z,2.30
2019-02-20T03:18:40.059Z,2.34
2019-02-20T03:19:40.285Z,2.30
2019-02-20T03:21:44.451Z,2.25
2019-02-20T03:22:44.683Z,2.27
2019-02-20T03:24:48.821Z,2.28
2019-02-20T03:25:49.053Z,2.21
2019-02-20T03:27:42.154Z,2.24
2019-02-20T03:28:42.380Z,2.18
2019-02-20T03:30:46.555Z,2.18
2019-02-20T03:31:46.791Z,2.18
2019-02-20T03:33:50.925Z,2.12
2019-02-20T03:34:51.153Z,2.18
2019-02-20T03:36:55.313Z,2.20
2019-02-20T03:37:55.548Z,2.12
2019-02-20T03:39:59.701Z,2.21
2019-02-20T03:40:59.925Z,2.12
2019-02-20T03:43:04.087Z,2.14
2019-02-20T03:44:04.324Z,2.09
2019-02-20T03:46:08.505Z,2.23
2019-02-20T03:47:08.717Z,2.20
2019-02-20T03:49:12.867Z,2.14
2019-02-20T03:50:13.100Z,2.09
2019-02-20T03:52:17.280Z,2.21
2019-02-20T03:53:17.495Z,2.20
2019-02-20T03:55:21.636Z,2.09
2019-02-20T03:56:21.869Z,2.17
2019-02-20T03:58:26.034Z,2.24
2019-02-20T03:59:26.266Z,2.24
2019-02-20T04:01:30.424Z,2.06
2019-02-20T04:02:30.659Z,2.17
2019-02-20T04:04:34.821Z,2.12
2019-02-20T04:05:35.051Z,2.06
2019-02-20T04:07:28.145Z,2.07
2019-02-20T04:08:28.358Z,2.03
2019-02-20T04:10:32.523Z,2.10
2019-02-20T04:11:32.753Z,2.05
2019-02-20T04:13:36.899Z,2.12
2019-02-20T04:14:37.130Z,2.14
2019-02-20T04:16:41.298Z,2.35
2019-02-20T04:17:41.526Z,2.39
2019-02-20T04:19:45.689Z,2.63
2019-02-20T04:20:45.923Z,2.63
2019-02-20T04:22:50.065Z,2.66
2019-02-20T04:23:50.297Z,2.53
2019-02-20T04:25:54.450Z,2.49
2019-02-20T04:26:54.687Z,2.60
2019-02-20T04:28:58.829Z,2.66
2019-02-20T04:29:59.061Z,2.74
2019-02-20T04:32:03.223Z,2.75
2019-02-20T04:33:03.459Z,2.71
2019-02-20T04:35:07.621Z,2.72
2019-02-20T04:36:07.851Z,2.74
2019-02-20T04:38:00.919Z,2.74
2019-02-20T04:39:01.151Z,2.57
2019-02-20T04:41:05.315Z,2.67
2019-02-20T04:42:05.549Z,2.69
2019-02-20T04:44:09.690Z,2.63
2019-02-20T04:45:09.926Z,2.57
2019-02-20T04:47:14.088Z,2.63
2019-02-20T04:48:14.321Z,2.67
2019-02-20T04:50:18.478Z,2.74
2019-02-20T04:51:18.714Z,2.74
2019-02-20T04:53:22.855Z,2.75
2019-02-20T04:54:23.089Z,2.59
2019-02-20T04:56:27.247Z,2.74
2019-02-20T04:57:27.497Z,2.60
2019-02-20T04:59:31.622Z,2.71
2019-02-20T05:00:31.853Z,2.72
2019-02-20T05:02:36.016Z,2.72
2019-02-20T05:03:36.244Z,2.74
2019-02-20T05:05:40.406Z,2.84
2019-02-20T05:06:40.640Z,2.82
2019-02-20T05:08:44.779Z,2.89
2019-02-20T05:09:45.012Z,2.81
2019-02-20T05:11:49.175Z,2.92
2019-02-20T05:12:49.408Z,2.90
2019-02-20T05:14:53.554Z,2.78
2019-02-20T05:15:53.790Z,2.89
2019-02-20T05:17:46.876Z,2.90
2019-02-20T05:18:47.111Z,2.81
2019-02-20T05:20:51.277Z,2.85
2019-02-20T05:21:51.511Z,2.82
2019-02-20T05:23:55.663Z,2.90
2019-02-20T05:24:55.890Z,2.79
2019-02-20T05:27:00.055Z,2.84
2019-02-20T05:28:00.285Z,2.87
2019-02-20T05:30:04.428Z,2.87
2019-02-20T05:31:04.667Z,2.87
2019-02-20T05:33:08.822Z,2.92
2019-02-20T05:34:09.060Z,2.85
2019-02-20T05:36:13.197Z,2.87
2019-02-20T05:37:13.439Z,2.89
2019-02-20T05:39:17.589Z,2.93
2019-02-20T05:40:17.821Z,2.92
2019-02-20T05:42:21.986Z,2.84
2019-02-20T05:43:22.220Z,2.90
2019-02-20T05:45:26.365Z,2.92
2019-02-20T05:46:26.600Z,2.90
2019-02-20T05:48:30.765Z,2.92
2019-02-20T05:49:31.000Z,3.08
2019-02-20T05:51:35.142Z,3.05
2019-02-20T05:52:35.371Z,3.05
2019-02-20T05:54:39.537Z,2.97
2019-02-20T05:55:39.770Z,3.03
2019-02-20T05:57:32.861Z,3.00
2019-02-20T05:58:33.103Z,2.97
2019-02-20T06:00:37.235Z,3.06
2019-02-20T06:01:37.467Z,3.06
2019-02-20T06:03:41.652Z,3.08
2019-02-20T06:04:41.866Z,2.90
2019-02-20T06:06:46.005Z,2.99
2019-02-20T06:07:46.236Z,3.05
2019-02-20T06:09:50.395Z,2.99
2019-02-20T06:10:50.626Z,2.96
2019-02-20T06:12:54.785Z,3.06
2019-02-20T06:13:55.016Z,2.96
2019-02-20T06:15:59.167Z,2.95
2019-02-20T06:16:59.396Z,3.06
2019-02-20T06:19:03.567Z,3.03
2019-02-20T06:20:03.796Z,3.11
2019-02-20T06:22:07.942Z,3.03
2019-02-20T06:23:08.176Z,2.96
2019-02-20T06:25:12.367Z,3.08
2019-02-20T06:26:12.579Z,3.05
2019-02-20T06:28:05.689Z,3.02
2019-02-20T06:29:05.916Z,3.05
2019-02-20T06:31:10.063Z,3.05
2019-02-20T06:32:10.291Z,3.02
2019-02-20T06:34:14.453Z,3.15
2019-02-20T06:35:14.683Z,3.14
2019-02-20T06:37:18.821Z,3.08
2019-02-20T06:38:19.059Z,3.02
2019-02-20T06:40:23.221Z,3.02
2019-02-20T06:41:23.453Z,3.13
2019-02-20T06:43:27.599Z,3.08
2019-02-20T06:44:27.832Z,3.08
2019-02-20T06:46:32.002Z,3.13
2019-02-20T06:47:32.233Z,3.11
2019-02-20T06:49:36.398Z,3.15
2019-02-20T06:50:36.629Z,3.15
2019-02-20T06:52:40.770Z,3.20
2019-02-20T06:53:41.006Z,3.21
2019-02-20T06:55:45.164Z,3.24
2019-02-20T06:56:45.397Z,3.23
2019-02-20T06:58:49.538Z,3.23
2019-02-20T06:59:49.771Z,3.26
2019-02-20T07:01:53.933Z,3.31
2019-02-20T07:02:54.163Z,3.33
2019-02-20T07:04:58.330Z,3.36
2019-02-20T07:05:58.559Z,3.35
2019-02-20T07:07:51.629Z,3.32
2019-02-20T07:08:51.865Z,3.39
2019-02-20T07:10:56.028Z,3.43
2019-02-20T07:11:56.260Z,3.48
2019-02-20T07:14:00.398Z,3.50
2019-02-20T07:15:00.630Z,3.45
2019-02-20T07:17:04.793Z,3.52
2019-02-20T07:18:05.042Z,3.50
2019-02-20T07:20:09.208Z,3.58
2019-02-20T07:21:09.441Z,3.66
2019-02-20T07:23:13.585Z,3.65
2019-02-20T07:24:13.818Z,3.70
2019-02-20T07:26:17.983Z,3.65
2019-02-20T07:27:18.215Z,3.58
2019-02-20T07:29:22.357Z,3.69
2019-02-20T07:30:22.590Z,3.73
2019-02-20T07:32:26.752Z,3.84
2019-02-20T07:33:26.984Z,3.86
2019-02-20T07:35:31.154Z,3.80
2019-02-20T07:36:31.388Z,3.78
2019-02-20T07:38:35.531Z,3.86
2019-02-20T07:39:35.762Z,3.79
2019-02-20T07:41:39.926Z,3.96
2019-02-20T07:42:40.158Z,3.90
2019-02-20T07:44:44.309Z,3.97
2019-02-20T07:45:44.543Z,4.06
2019-02-20T07:47:37.634Z,4.16
2019-02-20T07:48:37.868Z,4.30
2019-02-20T07:50:42.013Z,4.41
2019-02-20T07:51:42.244Z,4.45
2019-02-20T07:53:46.407Z,4.66
2019-02-20T07:54:46.645Z,4.70
2019-02-20T07:56:50.805Z,4.78
2019-02-20T07:57:51.039Z,4.85
2019-02-20T07:59:55.188Z,5.03
2019-02-20T08:00:55.422Z,5.04
2019-02-20T08:02:59.588Z,5.24
2019-02-20T08:03:59.823Z,5.28
2019-02-20T08:06:03.968Z,5.45
2019-02-20T08:07:04.202Z,5.67
2019-02-20T08:09:08.372Z,5.83
2019-02-20T08:10:08.604Z,6.18
2019-02-20T08:12:12.773Z,6.56
2019-02-20T08:13:13.006Z,6.38
2019-02-20T08:15:17.150Z,6.49
2019-02-20T08:16:17.385Z,6.55
2019-02-20T08:18:10.520Z,6.49
2019-02-20T08:19:10.717Z,6.44
2019-02-20T08:21:14.862Z,6.56
2019-02-20T08:22:15.096Z,6.76
2019-02-20T08:24:19.263Z,7.02
2019-02-20T08:25:22.838Z,7.32
2019-02-20T08:27:23.668Z,7.85
2019-02-20T08:28:23.905Z,7.98
2019-02-20T08:30:28.052Z,8.26
2019-02-20T08:31:28.289Z,8.07
2019-02-20T08:33:32.458Z,8.00
2019-02-20T08:34:32.711Z,7.98
2019-02-20T08:36:37.863Z,8.08
2019-02-20T08:37:38.100Z,8.25
2019-02-20T08:39:42.270Z,7.98
2019-02-20T08:40:42.509Z,7.63
2019-02-20T08:42:46.679Z,7.50
2019-02-20T08:43:46.913Z,7.30
2019-02-20T08:45:51.066Z,7.13
2019-02-20T08:46:51.300Z,7.21
2019-02-20T08:48:55.472Z,7.34
2019-02-20T08:49:55.712Z,7.53
2019-02-20T08:51:59.860Z,8.08
2019-02-20T08:53:00.100Z,8.34
2019-02-20T08:55:04.284Z,8.48
2019-02-20T08:56:04.509Z,8.80
2019-02-20T08:57:57.597Z,8.92
2019-02-20T08:58:57.835Z,8.79
2019-02-20T09:01:02.004Z,8.16
2019-02-20T09:02:02.244Z,8.25
2019-02-20T09:04:06.411Z,8.10
2019-02-20T09:05:06.652Z,8.11
2019-02-20T09:07:10.801Z,8.00
2019-02-20T09:08:11.035Z,8.18
2019-02-20T09:10:17.194Z,7.83
2019-02-20T09:11:15.452Z,7.79
2019-02-20T09:13:19.599Z,8.28
2019-02-20T09:14:19.835Z,8.48
2019-02-20T09:16:24.004Z,8.92
2019-02-20T09:17:24.241Z,9.05
2019-02-20T09:19:28.435Z,10.64
2019-02-20T09:20:28.649Z,11.51
2019-02-20T09:22:32.801Z,11.37
2019-02-20T09:23:33.037Z,11.43
2019-02-20T09:25:41.681Z,12.57
2019-02-20T09:26:37.459Z,13.57
2019-02-20T09:28:41.611Z,14.57
2019-02-20T09:29:41.840Z,14.99
2019-02-20T09:31:46.012Z,14.39
2019-02-20T09:32:46.261Z,13.97
2019-02-20T09:34:50.429Z,12.72
2019-02-20T09:35:50.671Z,12.04
2019-02-20T09:37:43.757Z,10.66
2019-02-20T09:38:44.012Z,10.60
2019-02-20T09:40:48.173Z,10.38
2019-02-20T09:41:48.416Z,10.71
2019-02-20T09:43:52.571Z,11.07
2019-02-20T09:44:52.812Z,11.29
2019-02-20T09:46:56.991Z,11.07
2019-02-20T09:47:57.232Z,11.09
2019-02-20T09:50:01.387Z,11.09
2019-02-20T09:51:01.626Z,10.84
2019-02-20T09:53:05.800Z,10.91
2019-02-20T09:54:06.042Z,10.82
2019-02-20T09:56:10.215Z,10.48
2019-02-20T09:57:10.457Z,10.48
2019-02-20T09:59:14.613Z,11.11
2019-02-20T10:00:14.852Z,11.10
2019-02-20T10:02:19.027Z,11.91
2019-02-20T10:03:19.267Z,12.16
2019-02-20T10:05:23.423Z,12.24
2019-02-20T10:06:23.665Z,12.09
2019-02-20T10:08:27.837Z,11.57
2019-02-20T10:09:28.077Z,11.47
2019-02-20T10:11:32.253Z,11.22
2019-02-20T10:12:32.495Z,10.89
2019-02-20T10:14:36.649Z,10.26
2019-02-20T10:15:36.890Z,9.89
2019-02-20T10:17:29.993Z,9.53
2019-02-20T10:18:30.232Z,9.32
2019-02-20T10:20:34.386Z,9.43
2019-02-20T10:21:34.628Z,9.46
2019-02-20T10:23:38.798Z,9.56
2019-02-20T10:24:39.040Z,9.66
2019-02-20T10:26:43.213Z,9.87
2019-02-20T10:27:43.458Z,9.75
2019-02-20T10:29:47.603Z,10.22
2019-02-20T10:30:47.851Z,10.14
2019-02-20T10:32:52.018Z,10.45
2019-02-20T10:33:52.259Z,10.60
2019-02-20T10:35:56.408Z,10.17
2019-02-20T10:36:56.647Z,10.25
2019-02-20T10:39:00.820Z,10.08
2019-02-20T10:40:01.059Z,10.07
2019-02-20T10:42:05.263Z,9.75
2019-02-20T10:43:05.505Z,9.76
2019-02-20T10:45:09.653Z,9.93
2019-02-20T10:46:09.894Z,9.74
2019-02-20T10:48:03.000Z,9.58
2019-02-20T10:49:03.233Z,9.66
2019-02-20T10:51:07.382Z,9.61
2019-02-20T10:52:07.623Z,9.56
2019-02-20T10:54:11.794Z,9.72
2019-02-20T10:55:12.035Z,9.69
2019-02-20T10:57:16.184Z,9.60
2019-02-20T10:58:16.466Z,9.68
2019-02-20T11:00:24.039Z,9.71
2019-02-20T11:01:20.832Z,9.69
2019-02-20T11:03:25.011Z,9.68
2019-02-20T11:04:25.252Z,9.83
2019-02-20T11:06:29.402Z,9.71
2019-02-20T11:07:29.642Z,10.04
2019-02-20T11:09:33.809Z,9.96
2019-02-20T11:10:34.048Z,9.94
2019-02-20T11:12:38.199Z,9.96
2019-02-20T11:13:38.439Z,9.99
2019-02-20T11:15:42.608Z,10.11
2019-02-20T11:16:42.847Z,10.32
2019-02-20T11:18:47.031Z,10.64
2019-02-20T11:19:47.260Z,10.56
2019-02-20T11:21:51.415Z,10.70
2019-02-20T11:22:51.645Z,10.67
2019-02-20T11:24:55.815Z,10.91
2019-02-20T11:25:56.054Z,10.88
2019-02-20T11:27:49.129Z,11.07
2019-02-20T11:28:49.366Z,11.35
2019-02-20T11:30:53.537Z,11.76
2019-02-20T11:31:53.777Z,11.64
2019-02-20T11:33:57.926Z,11.47
2019-02-20T11:34:58.166Z,11.44
2019-02-20T11:37:02.337Z,11.47
2019-02-20T11:38:02.577Z,11.35
2019-02-20T11:40:06.749Z,10.67
2019-02-20T11:41:06.989Z,10.67
2019-02-20T11:43:11.140Z,10.84
2019-02-20T11:44:11.382Z,11.02
2019-02-20T11:46:15.556Z,11.04
2019-02-20T11:47:15.795Z,11.19
2019-02-20T11:49:19.950Z,10.94
2019-02-20T11:50:20.184Z,11.00
2019-02-20T11:52:24.355Z,11.24
2019-02-20T11:53:24.598Z,11.22
2019-02-20T11:55:28.767Z,11.64
2019-02-20T11:56:29.008Z,11.27
2019-02-20T11:58:33.158Z,11.37
2019-02-20T11:59:33.401Z,11.42
2019-02-20T12:01:37.574Z,11.19
2019-02-20T12:02:37.843Z,11.33
2019-02-20T12:04:41.966Z,11.24
2019-02-20T12:05:43.312Z,11.27
2019-02-20T12:07:35.310Z,11.42
2019-02-20T12:08:35.555Z,11.24
2019-02-20T12:10:39.726Z,11.27
2019-02-20T12:11:39.964Z,11.44
2019-02-20T12:13:44.118Z,12.04
2019-02-20T12:14:44.364Z,12.13
2019-02-20T12:16:48.531Z,12.29
2019-02-20T12:17:48.771Z,12.41
2019-02-20T12:19:52.921Z,12.74
2019-02-20T12:20:53.177Z,12.65
2019-02-20T12:22:57.344Z,12.75
2019-02-20T12:23:57.586Z,12.65
2019-02-20T12:26:01.758Z,11.86
2019-02-20T12:27:01.999Z,11.58
2019-02-20T12:29:06.152Z,11.73
2019-02-20T12:30:06.393Z,11.90
2019-02-20T12:32:10.570Z,11.86
2019-02-20T12:33:10.810Z,11.88
2019-02-20T12:35:14.976Z,11.52
2019-02-20T12:36:15.215Z,11.54
2019-02-20T12:38:08.323Z,11.70
2019-02-20T12:39:08.568Z,11.73
2019-02-20T12:41:12.749Z,11.54
2019-02-20T12:42:13.071Z,11.57
2019-02-20T12:44:17.143Z,11.83
2019-02-20T12:45:17.386Z,11.83
2019-02-20T12:47:21.559Z,12.07
2019-02-20T12:48:21.801Z,11.91
2019-02-20T12:50:25.958Z,12.04
2019-02-20T12:51:26.196Z,12.27
2019-02-20T12:53:30.373Z,12.79
2019-02-20T12:54:30.615Z,12.95
2019-02-20T12:56:34.788Z,12.52
2019-02-20T12:57:35.028Z,12.53
2019-02-20T12:59:39.204Z,13.20
2019-02-20T13:00:39.449Z,13.78
2019-02-20T13:02:43.628Z,13.03
2019-02-20T13:03:43.907Z,12.85
2019-02-20T13:05:48.030Z,12.68
2019-02-20T13:06:48.272Z,12.83
2019-02-20T13:08:52.447Z,12.65
2019-02-20T13:09:52.690Z,12.71
2019-02-20T13:11:56.844Z,12.56
2019-02-20T13:12:57.087Z,12.72
2019-02-20T13:15:01.264Z,12.12
2019-02-20T13:16:09.356Z,11.85
2019-02-20T13:17:54.609Z,11.69
2019-02-20T13:18:54.853Z,11.73
2019-02-20T13:20:59.331Z,12.35
2019-02-20T13:21:59.254Z,12.83
2019-02-20T13:24:03.434Z,13.28
2019-02-20T13:25:04.189Z,13.08
2019-02-20T13:27:10.291Z,13.03
2019-02-20T13:28:08.073Z,13.23
2019-02-20T13:30:12.251Z,12.89
2019-02-20T13:31:12.496Z,12.60
2019-02-20T13:33:16.675Z,12.74
2019-02-20T13:34:16.919Z,12.64
2019-02-20T13:36:21.075Z,13.32
2019-02-20T13:37:21.318Z,13.49
2019-02-20T13:39:25.499Z,13.66
2019-02-20T13:40:25.762Z,13.92
2019-02-20T13:42:29.957Z,14.10
2019-02-20T13:43:30.250Z,14.24
2019-02-20T13:45:34.460Z,14.75
2019-02-20T13:46:34.711Z,15.19
2019-02-20T13:48:38.897Z,14.78
2019-02-20T13:49:39.185Z,14.40
2019-02-20T13:51:43.342Z,13.81
2019-02-20T13:52:51.784Z,14.14
2019-02-20T13:54:47.819Z,13.87
2019-02-20T13:55:48.063Z,13.97
2019-02-20T13:57:41.154Z,15.11
2019-02-20T13:58:41.398Z,15.44
2019-02-20T14:00:45.580Z,14.96
2019-02-20T14:01:45.825Z,15.16
2019-02-20T14:03:50.079Z,14.70
2019-02-20T14:04:50.321Z,14.14
2019-02-20T14:06:54.484Z,13.70
2019-02-20T14:07:54.730Z,13.51
2019-02-20T14:09:58.914Z,13.42
2019-02-20T14:10:59.158Z,13.32
2019-02-20T14:13:03.343Z,12.79
2019-02-20T14:14:03.586Z,12.93
2019-02-20T14:16:07.767Z,12.49
2019-02-20T14:17:08.009Z,12.37
2019-02-20T14:19:12.191Z,12.12
2019-02-20T14:20:12.508Z,11.99
2019-02-20T14:22:16.646Z,12.16
2019-02-20T14:23:16.955Z,12.31
2019-02-20T14:25:21.137Z,12.17
2019-02-20T14:26:21.379Z,12.19
2019-02-20T14:28:25.543Z,11.86
2019-02-20T14:29:25.815Z,11.83
2019-02-20T14:31:30.063Z,11.75
2019-02-20T14:32:30.354Z,11.99
2019-02-20T14:34:34.558Z,12.17
2019-02-20T14:35:34.796Z,12.02
2019-02-20T14:37:27.903Z,11.51
2019-02-20T14:38:28.150Z,11.33
2019-02-20T14:40:32.324Z,11.28
2019-02-20T14:41:32.564Z,11.28
2019-02-20T14:43:36.718Z,11.47
2019-02-20T14:44:36.961Z,11.42
2019-02-20T14:46:41.138Z,11.22
2019-02-20T14:47:41.379Z,11.28
2019-02-20T14:49:45.535Z,11.25
2019-02-20T14:50:45.774Z,11.28
2019-02-20T14:52:49.949Z,11.24
2019-02-20T14:53:50.188Z,11.33
2019-02-20T14:55:54.366Z,11.54
2019-02-20T14:56:54.602Z,11.65
2019-02-20T14:58:58.752Z,11.57
2019-02-20T14:59:58.993Z,11.76
2019-02-20T15:02:03.165Z,11.40
2019-02-20T15:03:03.409Z,11.11
2019-02-20T15:05:07.561Z,10.71
2019-02-20T15:06:07.801Z,11.07
2019-02-20T15:08:02.158Z,11.17
2019-02-20T15:09:01.190Z,11.22
2019-02-20T15:11:05.350Z,11.72
2019-02-20T15:12:05.596Z,11.61
2019-02-20T15:14:09.772Z,11.32
2019-02-20T15:15:10.800Z,11.27
2019-02-20T15:17:14.185Z,11.09
2019-02-20T15:18:14.424Z,11.06
2019-02-20T15:20:18.579Z,10.79
2019-02-20T15:21:18.816Z,10.73
2019-02-20T15:23:22.990Z,10.81
2019-02-20T15:24:23.230Z,10.92
2019-02-20T15:26:27.384Z,11.11
2019-02-20T15:27:28.856Z,11.25
2019-02-20T15:29:31.796Z,11.25
2019-02-20T15:30:32.037Z,11.02
2019-02-20T15:32:36.484Z,10.51
2019-02-20T15:33:36.497Z,10.42
2019-02-20T15:35:40.648Z,10.22
2019-02-20T15:36:40.889Z,10.30
2019-02-20T15:38:45.057Z,10.15
2019-02-20T15:39:45.300Z,10.02
2019-02-20T15:41:49.447Z,10.08
2019-02-20T15:42:49.688Z,10.15
2019-02-20T15:44:53.857Z,9.97
2019-02-20T15:45:54.098Z,10.01
2019-02-20T15:47:47.178Z,9.94
2019-02-20T15:48:47.414Z,9.89
2019-02-20T15:50:53.043Z,9.71
2019-02-20T15:51:51.821Z,9.72
2019-02-20T15:53:56.026Z,9.65
2019-02-20T15:54:56.240Z,9.66
2019-02-20T15:57:00.396Z,9.58
2019-02-20T15:58:00.637Z,9.57
2019-02-20T16:00:04.806Z,9.50
2019-02-20T16:01:05.686Z,9.51
2019-02-20T16:03:09.204Z,9.56
2019-02-20T16:04:09.435Z,9.51
2019-02-20T16:06:13.609Z,9.46
2019-02-20T16:07:13.845Z,9.53
2019-02-20T16:09:18.011Z,9.33
2019-02-20T16:10:18.252Z,9.38
2019-02-20T16:12:22.398Z,9.39
2019-02-20T16:13:22.638Z,9.36
2019-02-20T16:15:26.803Z,9.23
2019-02-20T16:16:28.241Z,9.31
2019-02-20T16:18:31.188Z,9.32
2019-02-20T16:19:31.423Z,9.29
2019-02-20T16:21:35.591Z,9.14
2019-02-20T16:22:35.830Z,9.23
2019-02-20T16:24:40.006Z,9.18
2019-02-20T16:25:40.243Z,9.21
2019-02-20T16:27:33.324Z,9.13
2019-02-20T16:28:34.113Z,9.05
2019-02-20T16:30:37.729Z,8.94
2019-02-20T16:31:37.966Z,8.98
2019-02-20T16:33:42.122Z,8.94
2019-02-20T16:34:42.352Z,8.99
2019-02-20T16:36:46.520Z,8.92
2019-02-20T16:37:46.758Z,8.87
2019-02-20T16:39:50.928Z,8.89
2019-02-20T16:40:51.164Z,8.81
2019-02-20T16:42:55.310Z,8.89
2019-02-20T16:43:55.549Z,8.83
2019-02-20T16:45:59.712Z,8.81
2019-02-20T16:46:59.951Z,8.84
2019-02-20T16:49:04.150Z,8.71
2019-02-20T16:50:04.390Z,8.71
2019-02-20T16:52:08.555Z,8.61
2019-02-20T16:53:08.790Z,8.65
2019-02-20T16:55:19.264Z,8.66
2019-02-20T16:56:13.173Z,8.65
2019-02-20T16:58:06.269Z,8.73
2019-02-20T16:59:06.508Z,8.59
2019-02-20T17:01:10.667Z,8.71
2019-02-20T17:02:10.905Z,8.65
2019-02-20T17:04:15.052Z,8.65
2019-02-20T17:05:15.946Z,8.70
2019-02-20T17:07:19.455Z,8.59
2019-02-20T17:08:19.690Z,8.62
2019-02-20T17:10:23.837Z,8.61
2019-02-20T17:11:24.070Z,8.58
2019-02-20T17:13:28.236Z,8.53
2019-02-20T17:14:28.471Z,8.48
2019-02-20T17:16:32.636Z,8.38
2019-02-20T17:17:32.873Z,8.43
2019-02-20T17:19:37.015Z,8.30
2019-02-20T17:20:37.260Z,8.23
2019-02-20T17:22:41.418Z,8.22
2019-02-20T17:23:41.654Z,8.11
2019-02-20T17:25:45.799Z,8.02
2019-02-20T17:26:46.035Z,8.05
2019-02-20T17:28:50.213Z,7.93
2019-02-20T17:29:50.450Z,8.02
2019-02-20T17:31:54.694Z,7.90
2019-02-20T17:32:54.933Z,7.97
2019-02-20T17:34:59.090Z,7.90
2019-02-20T17:35:59.382Z,7.92
2019-02-20T17:37:52.477Z,7.92
2019-02-20T17:38:52.711Z,7.82
2019-02-20T17:40:56.863Z,7.89
2019-02-20T17:41:57.140Z,7.90
2019-02-20T17:44:01.311Z,7.98
2019-02-20T17:45:01.677Z,7.83
2019-02-20T17:47:05.890Z,7.83
2019-02-20T17:48:06.123Z,7.85
2019-02-20T17:50:10.267Z,7.86
2019-02-20T17:51:10.501Z,7.75
2019-02-20T17:53:14.719Z,7.72
2019-02-20T17:54:17.107Z,7.69
2019-02-20T17:56:19.153Z,7.60
2019-02-20T17:57:19.419Z,7.68
2019-02-20T17:59:23.644Z,7.67
2019-02-20T18:00:23.915Z,7.60
2019-02-20T18:02:28.146Z,7.50
2019-02-20T18:03:28.422Z,7.50
2019-02-20T18:05:32.584Z,7.37
2019-02-20T18:06:32.866Z,7.45
2019-02-20T18:08:37.041Z,7.48
2019-02-20T18:09:37.272Z,7.50
2019-02-20T18:11:41.438Z,7.32
2019-02-20T18:12:41.735Z,7.10
2019-02-20T18:14:45.960Z,6.99
2019-02-20T18:15:46.192Z,7.03
2019-02-20T18:17:39.262Z,6.95
2019-02-20T18:18:39.506Z,6.87
2019-02-20T18:20:43.665Z,6.81
2019-02-20T18:21:43.905Z,6.67
2019-02-20T18:23:48.075Z,7.15
2019-02-20T18:24:48.319Z,6.80
2019-02-20T18:26:52.458Z,6.49
2019-02-20T18:27:52.726Z,6.51
2019-02-20T18:29:56.967Z,6.51
2019-02-20T18:30:57.236Z,6.44
2019-02-20T18:33:01.421Z,6.46
2019-02-20T18:34:01.647Z,6.44
2019-02-20T18:36:05.892Z,6.48
2019-02-20T18:37:06.133Z,6.31
2019-02-20T18:39:10.311Z,6.31
2019-02-20T18:40:10.986Z,6.30
2019-02-20T18:42:14.780Z,6.31
2019-02-20T18:43:15.552Z,6.36
2019-02-20T18:45:19.370Z,6.09
2019-02-20T18:46:19.745Z,6.18
2019-02-20T18:48:12.935Z,6.19
2019-02-20T18:49:13.297Z,6.28
2019-02-20T18:51:17.576Z,6.36
2019-02-20T18:52:17.980Z,6.12
2019-02-20T18:54:22.126Z,6.25
2019-02-20T18:55:22.370Z,6.11
2019-02-20T18:57:26.521Z,5.99
2019-02-20T18:58:33.800Z,6.01
2019-02-20T19:00:30.920Z,6.00
2019-02-20T19:01:31.155Z,5.91
2019-02-20T19:03:35.360Z,6.00
2019-02-20T19:04:35.589Z,6.01
2019-02-20T19:06:39.842Z,5.91
2019-02-20T19:07:40.057Z,5.93
2019-02-20T19:09:44.208Z,5.93
2019-02-20T19:10:44.440Z,5.90
2019-02-20T19:12:48.694Z,5.83
2019-02-20T19:13:48.971Z,5.86
2019-02-20T19:15:53.141Z,5.89
2019-02-20T19:16:53.425Z,5.91
2019-02-20T19:19:02.390Z,5.90
2019-02-20T19:19:57.787Z,5.89
2019-02-20T19:22:02.020Z,5.78
2019-02-20T19:23:02.218Z,5.74
2019-02-20T19:25:06.365Z,5.68
2019-02-20T19:26:06.593Z,5.57
2019-02-20T19:27:59.693Z,5.43
2019-02-20T19:28:59.921Z,5.40
2019-02-20T19:31:04.090Z,5.56
2019-02-20T19:32:04.320Z,5.58
2019-02-20T19:34:08.464Z,5.76
2019-02-20T19:35:08.701Z,5.58
2019-02-20T19:37:12.862Z,5.74
2019-02-20T19:38:13.107Z,5.78
2019-02-20T19:40:17.240Z,5.85
2019-02-20T19:41:17.475Z,5.86
2019-02-20T19:43:27.371Z,5.90
2019-02-20T19:44:21.892Z,5.89
2019-02-20T19:46:26.067Z,6.01
2019-02-20T19:47:26.290Z,5.94
2019-02-20T19:49:30.449Z,5.97
2019-02-20T19:50:32.908Z,6.09
2019-02-20T19:52:34.910Z,5.97
2019-02-20T19:53:35.168Z,5.99
2019-02-20T19:55:39.340Z,5.99
2019-02-20T19:56:39.594Z,5.81
2019-02-20T19:58:54.287Z,5.78
2019-02-20T19:59:44.812Z,5.67
2019-02-20T20:01:48.290Z,5.60
2019-02-20T20:02:48.495Z,5.57
2019-02-20T20:04:52.640Z,5.38
2019-02-20T20:05:52.874Z,5.35
2019-02-20T20:07:46.039Z,5.51
2019-02-20T20:08:46.272Z,5.61
2019-02-20T20:10:50.436Z,5.54